Time;durP1;ratioP1;P1;durP2;ratioP2;P2;SDS_P1;SDS_P2;PMS_P1;PMS_P2;Temp;Humidity;BMP_temperature;BMP_pressure;BME280_temperature;BME280_humidity;BME280_pressure;Samples;Min_cycle;Max_cycle;Signal;HPM_P1;HPM_P2
2023/05/29 00:02:25;;;;;;;;;;;;;;;23.18;44.66;102408.22;5053918;28;20410;-70
2023/05/29 00:04:50;;;;;;;;;;;;;;;23.19;44.51;102409.06;5052184;28;19921;-71
2023/05/29 00:07:16;;;;;;;;;;;;;;;23.18;44.38;102412.81;5038056;28;19917;-71
2023/05/29 00:09:41;;;;;;;;;;;;;;;23.17;44.59;102413.84;5036174;28;19948;-71
2023/05/29 00:12:07;;;;;;;;;;;;;;;23.16;44.50;102414.84;5033412;28;19918;-71
2023/05/29 00:14:32;;;;;;;;;;;;;;;23.14;44.55;102417.69;5054135;28;19917;-71
2023/05/29 00:16:57;;;;;;;;;;;;;;;23.14;44.26;102414.16;5038844;28;19931;-71
2023/05/29 00:19:24;;;;;;;;;;;;;;;23.13;44.07;102415.16;5055928;28;20369;-70
2023/05/29 00:21:50;;;;;;;;;;;;;;;23.12;44.27;102416.19;5061328;28;19917;-71
2023/05/29 00:24:15;;;;;;;;;;;;;;;23.12;44.30;102417.03;5036581;28;19928;-71
2023/05/29 00:26:41;;;;;;;;;;;;;;;23.11;44.34;102411.78;5056825;28;19923;-71
2023/05/29 00:29:06;;;;;;;;;;;;;;;23.10;44.49;102416.31;5057691;28;19921;-71
2023/05/29 00:31:31;;;;;;;;;;;;;;;23.09;44.08;102414.63;5042944;28;19921;-71
2023/05/29 00:33:56;;;;;;;;;;;;;;;23.08;44.31;102423.78;5053696;28;19967;-71
2023/05/29 00:36:22;;;;;;;;;;;;;;;23.07;44.29;102424.81;5051922;28;19913;-71
2023/05/29 00:38:47;;;;;;;;;;;;;;;23.07;44.40;102426.66;5052682;28;19956;-71
2023/05/29 00:41:13;;;;;;;;;;;;;;;23.07;44.34;102423.97;5053352;28;19913;-71
2023/05/29 00:43:38;;;;;;;;;;;;;;;23.06;43.95;102424.94;5041421;28;20006;-70
2023/05/29 00:46:04;;;;;;;;;;;;;;;23.04;44.12;102422.41;5050080;28;19917;-71
2023/05/29 00:48:29;;;;;;;;;;;;;;;23.04;44.11;102430.53;5039072;28;19966;-71
2023/05/29 00:50:54;;;;;;;;;;;;;;;23.03;43.97;102428.84;5057188;28;19954;-71
2023/05/29 00:53:19;;;;;;;;;;;;;;;23.03;44.19;102436.97;5049519;28;19940;-71
2023/05/29 00:55:45;;;;;;;;;;;;;;;23.01;44.11;102428.13;5059282;28;19968;-70
2023/05/29 00:58:10;;;;;;;;;;;;;;;23.01;44.11;102425.41;5046198;28;19913;-71
2023/05/29 01:00:35;;;;;;;;;;;;;;;23.00;44.00;102428.31;5054768;28;19940;-71
2023/05/29 01:03:02;;;;;;;;;;;;;;;22.99;44.19;102441.03;5052656;28;19925;-70
2023/05/29 01:05:27;;;;;;;;;;;;;;;22.98;43.91;102433.03;5052472;28;19960;-71
2023/05/29 01:07:52;;;;;;;;;;;;;;;22.97;44.09;102434.88;5037282;28;19925;-71
2023/05/29 01:10:18;;;;;;;;;;;;;;;22.95;43.84;102436.94;5053527;28;20361;-71
2023/05/29 01:12:45;;;;;;;;;;;;;;;22.93;43.95;102431.63;5040450;28;19984;-71
2023/05/29 01:15:21;;;;;;;;;;;;;;;22.92;43.96;102435.38;5048164;28;19960;-71
2023/05/29 01:18:05;;;;;;;;;;;;;;;22.91;43.69;102443.66;5036712;28;19920;-71
2023/05/29 01:20:36;;;;;;;;;;;;;;;22.90;43.87;102441.97;5058843;28;19940;-71
2023/05/29 01:23:10;;;;;;;;;;;;;;;22.89;44.08;102442.94;5060105;28;19917;-71
2023/05/29 01:25:44;;;;;;;;;;;;;;;22.88;43.83;102454.78;5051966;28;20354;-71
2023/05/29 01:28:09;;;;;;;;;;;;;;;22.86;44.00;102454.97;5052984;28;19917;-71
2023/05/29 01:30:34;;;;;;;;;;;;;;;22.87;43.84;102455.81;5034045;28;19923;-71
2023/05/29 01:33:00;;;;;;;;;;;;;;;22.86;44.02;102462.25;5047136;28;19917;-71
2023/05/29 01:35:25;;;;;;;;;;;;;;;22.85;43.69;102460.53;5035499;28;19913;-71
2023/05/29 01:37:50;;;;;;;;;;;;;;;22.84;43.96;102464.25;5034570;28;19920;-71
2023/05/29 01:40:15;;;;;;;;;;;;;;;22.83;43.83;102460.69;5049423;28;19917;-71
2023/05/29 01:42:41;;;;;;;;;;;;;;;22.83;43.92;102462.56;5035919;28;19913;-70
2023/05/29 01:45:06;;;;;;;;;;;;;;;22.82;43.74;102472.56;5046167;28;19964;-70
2023/05/29 01:47:31;;;;;;;;;;;;;;;22.81;43.67;102470.88;5051846;28;19976;-72
2023/05/29 01:49:57;;;;;;;;;;;;;;;22.81;43.62;102473.56;5060393;28;19970;-71
2023/05/29 01:52:22;;;;;;;;;;;;;;;22.81;43.88;102467.28;5051348;28;19955;-71
2023/05/29 01:54:47;;;;;;;;;;;;;;;22.80;43.71;102473.72;5054142;28;19939;-71
2023/05/29 01:57:12;;;;;;;;;;;;;;;22.79;43.73;102472.88;5036188;28;19913;-70
2023/05/29 01:59:37;;;;;;;;;;;;;;;22.78;43.51;102484.72;5033454;28;19913;-71
2023/05/29 02:02:06;;;;;;;;;;;;;;;22.79;43.43;102493.72;5046727;28;19955;-71
2023/05/29 02:04:31;;;;;;;;;;;;;;;22.77;43.48;102493.88;5051117;28;19916;-71
2023/05/29 02:06:57;;;;;;;;;;;;;;;22.76;43.38;102492.16;5032359;28;20035;-71
2023/05/29 02:09:23;;;;;;;;;;;;;;;22.76;43.57;102481.31;5050981;28;19921;-71
2023/05/29 02:11:48;;;;;;;;;;;;;;;22.76;43.58;102486.72;5055944;28;19913;-71
2023/05/29 02:14:13;;;;;;;;;;;;;;;22.76;43.61;102483.16;5035102;28;19920;-71
2023/05/29 02:16:40;;;;;;;;;;;;;;;22.75;43.27;102484.19;5039927;28;19939;-72
2023/05/29 02:19:06;;;;;;;;;;;;;;;22.74;43.52;102469.78;5053678;28;20016;-72
2023/05/29 02:21:31;;;;;;;;;;;;;;;22.23;43.38;102387.31;5054002;28;20335;-72
2023/05/29 02:23:56;;;;;;;;;;;;;;;22.73;43.25;102469.94;5055945;28;19968;-71
2023/05/29 02:26:22;;;;;;;;;;;;;;;22.72;43.45;102466.34;5050837;28;19936;-71
2023/05/29 02:28:47;;;;;;;;;;;;;;;22.70;43.58;102466.53;5020589;28;19952;-71
2023/05/29 02:31:13;;;;;;;;;;;;;;;22.70;43.27;102471.94;5031054;28;19917;-71
2023/05/29 02:33:38;;;;;;;;;;;;;;;22.69;43.43;102472.97;5036000;28;19948;-72
2023/05/29 02:36:03;;;;;;;;;;;;;;;22.68;43.49;102475.81;5049434;28;19913;-72
2023/05/29 02:38:28;;;;;;;;;;;;;;;22.67;43.39;102474.94;5035002;28;19913;-70
2023/05/29 02:40:53;;;;;;;;;;;;;;;22.67;43.23;102477.66;5049432;28;19913;-71
2023/05/29 02:43:20;;;;;;;;;;;;;;;22.66;43.33;102467.84;5055162;28;20392;-71
2023/05/29 02:45:45;;;;;;;;;;;;;;;22.66;43.29;102477.84;5037100;28;19921;-71
2023/05/29 02:48:10;;;;;;;;;;;;;;;22.65;43.01;102476.97;5053045;28;19983;-72
2023/05/29 02:50:36;;;;;;;;;;;;;;;22.65;43.19;102478.84;5056576;28;19913;-71
2023/05/29 02:53:01;;;;;;;;;;;;;;;22.64;43.33;102480.72;5031451;28;19952;-70
2023/05/29 02:55:26;;;;;;;;;;;;;;;22.63;43.22;102483.56;5052461;28;19929;-71
2023/05/29 02:57:54;;;;;;;;;;;;;;;22.63;43.39;102491.69;5044474;28;19947;-70
2023/05/29 03:00:20;;;;;;;;;;;;;;;22.61;43.17;102497.28;5051009;28;19919;-71
2023/05/29 03:02:45;;;;;;;;;;;;;;;22.60;43.36;102490.16;5039394;28;19913;-71
2023/05/29 03:05:11;;;;;;;;;;;;;;;22.60;43.26;102486.56;5050887;28;19972;-71
2023/05/29 03:07:36;;;;;;;;;;;;;;;22.60;43.14;102489.28;5050788;28;19932;-71
2023/05/29 03:10:01;;;;;;;;;;;;;;;22.58;43.23;102481.31;5050739;28;20330;-71
2023/05/29 03:12:27;;;;;;;;;;;;;;;22.57;43.23;102476.91;5037423;28;19932;-71
2023/05/29 03:14:52;;;;;;;;;;;;;;;22.57;42.98;102484.19;5052769;28;19917;-70
2023/05/29 03:17:19;;;;;;;;;;;;;;;22.56;43.01;102475.22;5041919;28;19932;-71
2023/05/29 03:19:44;;;;;;;;;;;;;;;22.54;43.18;102474.50;5043682;28;19947;-71
2023/05/29 03:22:09;;;;;;;;;;;;;;;22.54;43.27;102471.78;5049101;28;19913;-71
2023/05/29 03:24:34;;;;;;;;;;;;;;;22.54;42.98;102474.50;5054041;28;19913;-71
2023/05/29 03:27:00;;;;;;;;;;;;;;;22.53;42.90;102477.38;5049810;28;19914;-71
2023/05/29 03:29:25;;;;;;;;;;;;;;;22.52;43.11;102475.69;5050151;28;20393;-71
2023/05/29 03:31:50;;;;;;;;;;;;;;;22.50;43.08;102472.25;5031033;28;19924;-71
2023/05/29 03:34:15;;;;;;;;;;;;;;;22.49;43.21;102474.13;5032865;28;20000;-72
2023/05/29 03:36:41;;;;;;;;;;;;;;;22.49;43.15;102475.97;5049762;28;19960;-72
2023/05/29 03:39:06;;;;;;;;;;;;;;;22.48;43.04;102477.00;5061044;28;19917;-71
2023/05/29 03:41:31;;;;;;;;;;;;;;;22.47;42.81;102481.53;5055911;28;19959;-71
2023/05/29 03:43:56;;;;;;;;;;;;;;;22.46;43.02;102474.41;5062883;28;20829;-71
2023/05/29 03:46:22;;;;;;;;;;;;;;;22.45;42.98;102472.72;5060050;28;19913;-71
2023/05/29 03:48:47;;;;;;;;;;;;;;;22.44;43.18;102473.72;5038050;28;19925;-71
2023/05/29 03:51:12;;;;;;;;;;;;;;;22.43;43.17;102464.75;5045125;28;19913;-71
2023/05/29 03:53:37;;;;;;;;;;;;;;;22.42;43.20;102476.56;5052105;28;19924;-71
2023/05/29 03:56:02;;;;;;;;;;;;;;;22.41;43.13;102472.16;5036735;28;19916;-70
2023/05/29 03:58:28;;;;;;;;;;;;;;;22.40;43.06;102484.03;5056495;28;19917;-71
2023/05/29 04:00:53;;;;;;;;;;;;;;;22.39;42.87;102485.03;5058031;28;19960;-71
2023/05/29 04:03:18;;;;;;;;;;;;;;;22.39;42.87;102487.75;5055987;28;19917;-71
2023/05/29 04:05:43;;;;;;;;;;;;;;;22.39;42.93;102489.63;5039749;28;19913;-71
2023/05/29 04:08:10;;;;;;;;;;;;;;;22.36;43.13;102488.03;5056435;28;20015;-71
2023/05/29 04:10:36;;;;;;;;;;;;;;;22.36;43.01;102489.91;5059034;28;20009;-71
2023/05/29 04:13:02;;;;;;;;;;;;;;;22.34;42.98;102490.03;5062453;28;19928;-72
2023/05/29 04:15:27;;;;;;;;;;;;;;;22.34;42.90;102495.47;5051163;28;19925;-71
2023/05/29 04:17:53;;;;;;;;;;;;;;;22.33;42.86;102487.50;5058611;28;19921;-71
2023/05/29 04:20:18;;;;;;;;;;;;;;;22.32;42.91;102496.63;5037358;28;20329;-72
2023/05/29 04:22:43;;;;;;;;;;;;;;;22.31;42.88;102509.34;5056978;28;19916;-71
2023/05/29 04:25:10;;;;;;;;;;;;;;;22.31;42.82;102513.91;5026876;28;20218;-72
2023/05/29 04:27:37;;;;;;;;;;;;;;;22.29;42.76;102513.19;5059467;28;19917;-71
2023/05/29 04:30:03;;;;;;;;;;;;;;;22.28;42.75;102515.06;5044283;28;19924;-72
2023/05/29 04:32:28;;;;;;;;;;;;;;;22.27;42.84;102526.91;5056220;28;19916;-72
2023/05/29 04:34:54;;;;;;;;;;;;;;;22.27;42.83;102524.19;5045888;28;20334;-72
2023/05/29 04:37:21;;;;;;;;;;;;;;;22.25;42.76;102531.59;5055627;28;19917;-71
2023/05/29 04:39:46;;;;;;;;;;;;;;;22.25;42.90;102534.31;5049562;28;19913;-71
2023/05/29 04:42:12;;;;;;;;;;;;;;;22.25;42.87;102531.59;5055171;28;19920;-71
2023/05/29 04:44:38;;;;;;;;;;;;;;;22.24;42.98;102531.78;5043158;28;20408;-71
2023/05/29 04:47:03;;;;;;;;;;;;;;;22.25;42.63;102534.31;5045882;28;19936;-71
2023/05/29 04:49:29;;;;;;;;;;;;;;;22.23;42.83;102535.50;5054344;28;19917;-71
2023/05/29 04:51:54;;;;;;;;;;;;;;;22.23;42.68;102532.78;5038918;28;19967;-72
2023/05/29 04:54:20;;;;;;;;;;;;;;;22.21;42.83;102527.50;5052605;28;19923;-71
2023/05/29 04:56:45;;;;;;;;;;;;;;;22.21;42.56;102535.63;5039530;28;19924;-71
2023/05/29 04:59:11;;;;;;;;;;;;;;;22.20;42.79;102537.47;5052129;28;19913;-71
2023/05/29 05:01:36;;;;;;;;;;;;;;;22.20;42.68;102532.06;5038513;28;19913;-71
2023/05/29 05:04:01;;;;;;;;;;;;;;;22.19;42.81;102535.78;5040539;28;19921;-70
2023/05/29 05:06:26;;;;;;;;;;;;;;;22.18;42.88;102527.81;5053434;28;20448;-71
2023/05/29 05:08:52;;;;;;;;;;;;;;;22.19;42.56;102534.94;5054291;28;19921;-71
2023/05/29 05:11:18;;;;;;;;;;;;;;;22.17;42.51;102531.50;5057830;28;19917;-72
2023/05/29 05:13:43;;;;;;;;;;;;;;;22.16;42.65;102530.66;5056677;28;19913;-71
2023/05/29 05:16:08;;;;;;;;;;;;;;;22.16;42.81;102537.94;5046432;28;19927;-71
2023/05/29 05:18:35;;;;;;;;;;;;;;;22.16;42.68;102551.47;5054507;28;19924;-71
2023/05/29 05:21:02;;;;;;;;;;;;;;;22.15;42.73;102550.63;5051468;28;19921;-71
2023/05/29 05:23:27;;;;;;;;;;;;;;;22.14;42.55;102546.22;5052588;28;20000;-71
2023/05/29 05:25:52;;;;;;;;;;;;;;;22.14;42.60;102545.38;5052094;28;19967;-71
2023/05/29 05:28:17;;;;;;;;;;;;;;;22.14;42.63;102537.25;5053807;28;19959;-72
2023/05/29 05:30:42;;;;;;;;;;;;;;;22.13;42.78;102554.47;5044307;28;20376;-72
2023/05/29 05:33:08;;;;;;;;;;;;;;;22.13;42.48;102549.06;5053958;28;19943;-71
2023/05/29 05:35:33;;;;;;;;;;;;;;;22.12;42.47;102555.47;5035702;28;19920;-71
2023/05/29 05:37:58;;;;;;;;;;;;;;;22.13;42.46;102546.34;5044643;28;19920;-70
2023/05/29 05:40:25;;;;;;;;;;;;;;;22.11;42.83;102545.63;5059111;28;19920;-71
2023/05/29 05:42:50;;;;;;;;;;;;;;;22.12;42.46;102550.03;5050182;28;20036;-70
2023/05/29 05:45:16;;;;;;;;;;;;;;;22.11;42.43;102553.75;5058611;28;20266;-71
2023/05/29 05:47:41;;;;;;;;;;;;;;;22.11;42.88;102549.19;5040661;28;19956;-71
2023/05/29 05:50:07;;;;;;;;;;;;;;;22.10;42.71;102546.66;5053494;28;20004;-72
2023/05/29 05:52:33;;;;;;;;;;;;;;;22.10;42.55;102554.78;5041350;28;19913;-71
2023/05/29 05:54:59;;;;;;;;;;;;;;;22.09;42.59;102551.22;5051970;28;19913;-71
2023/05/29 05:57:25;;;;;;;;;;;;;;;22.09;42.47;102551.22;5049335;28;19921;-71
2023/05/29 05:59:50;;;;;;;;;;;;;;;22.10;42.80;102549.34;5051995;28;19972;-71
2023/05/29 06:02:15;;;;;;;;;;;;;;;22.09;42.45;102544.91;5043051;28;19912;-71
2023/05/29 06:04:41;;;;;;;;;;;;;;;22.07;42.51;102550.50;5034356;28;19913;-71
2023/05/29 06:07:06;;;;;;;;;;;;;;;22.09;42.67;102547.63;5055565;28;19913;-71
2023/05/29 06:09:32;;;;;;;;;;;;;;;22.07;42.74;102553.19;5052216;28;20014;-72
2023/05/29 06:11:57;;;;;;;;;;;;;;;22.07;42.63;102557.78;5046547;28;19917;-70
2023/05/29 06:14:23;;;;;;;;;;;;;;;22.07;42.53;102547.78;5053557;28;19917;-71
2023/05/29 06:16:48;;;;;;;;;;;;;;;22.07;42.65;102552.34;5049946;28;19932;-71
2023/05/29 06:19:14;;;;;;;;;;;;;;;22.06;42.49;102548.78;5050661;28;19913;-71
2023/05/29 06:21:40;;;;;;;;;;;;;;;22.06;42.37;102545.25;5038053;28;20324;-71
2023/05/29 06:24:05;;;;;;;;;;;;;;;22.06;42.41;102553.38;5033428;28;19980;-71
2023/05/29 06:26:30;;;;;;;;;;;;;;;22.07;42.63;102552.34;5047282;28;19913;-71
2023/05/29 06:28:55;;;;;;;;;;;;;;;22.06;42.44;102553.38;5036750;28;19917;-71
2023/05/29 06:31:20;;;;;;;;;;;;;;;22.05;42.57;102551.66;5049119;28;19999;-72
2023/05/29 06:33:46;;;;;;;;;;;;;;;22.06;42.39;102550.66;5057196;28;20819;-70
2023/05/29 06:36:11;;;;;;;;;;;;;;;22.05;42.32;102555.22;5053561;28;20354;-71
2023/05/29 06:38:36;;;;;;;;;;;;;;;22.06;42.42;102556.06;5050743;28;19913;-71
2023/05/29 06:41:01;;;;;;;;;;;;;;;22.05;42.49;102557.94;5056402;28;19916;-70
2023/05/29 06:43:27;;;;;;;;;;;;;;;22.06;42.73;102561.50;5048607;28;19928;-70
2023/05/29 06:45:52;;;;;;;;;;;;;;;22.05;42.70;102557.94;5052733;28;19917;-70
2023/05/29 06:48:18;;;;;;;;;;;;;;;22.06;42.64;102566.91;5049507;28;19975;-70
2023/05/29 06:50:43;;;;;;;;;;;;;;;22.05;42.58;102559.78;5054105;28;19923;-71
2023/05/29 06:53:08;;;;;;;;;;;;;;;22.05;42.51;102566.06;5050493;28;19916;-70
2023/05/29 06:55:33;;;;;;;;;;;;;;;22.05;42.31;102576.03;5051127;28;20438;-70
2023/05/29 06:57:58;;;;;;;;;;;;;;;22.06;42.29;102558.78;5032440;28;19917;-71
2023/05/29 07:00:23;;;;;;;;;;;;;;;22.05;42.46;102573.34;5046406;28;20722;-71
2023/05/29 07:02:49;;;;;;;;;;;;;;;22.06;42.37;102575.03;5045195;28;20481;-71
2023/05/29 07:05:14;;;;;;;;;;;;;;;22.06;42.47;102575.03;5049271;28;19935;-71
2023/05/29 07:07:39;;;;;;;;;;;;;;;22.06;42.47;102575.88;5041025;28;19928;-70
2023/05/29 07:10:06;;;;;;;;;;;;;;;22.05;42.37;102576.91;5040356;28;19921;-71
2023/05/29 07:12:31;;;;;;;;;;;;;;;22.06;42.24;102585.88;5035169;28;19913;-71
2023/05/29 07:14:56;;;;;;;;;;;;;;;22.06;42.41;102580.44;5039859;28;19913;-70
2023/05/29 07:17:21;;;;;;;;;;;;;;;22.06;42.44;102580.44;5049553;28;19921;-71
2023/05/29 07:19:49;;;;;;;;;;;;;;;22.05;42.44;102582.31;5038333;28;20010;-71
2023/05/29 07:22:14;;;;;;;;;;;;;;;22.05;42.37;102576.03;5020488;28;20377;-71
2023/05/29 07:24:39;;;;;;;;;;;;;;;22.06;42.31;102580.44;5050867;28;19917;-71
2023/05/29 07:27:05;;;;;;;;;;;;;;;22.05;42.36;102582.31;5043697;28;19913;-71
2023/05/29 07:29:30;;;;;;;;;;;;;;;22.06;42.30;102585.88;5056995;28;20366;-71
2023/05/29 07:31:56;;;;;;;;;;;;;;;22.05;42.42;102581.47;5031472;28;19914;-71
2023/05/29 07:34:21;;;;;;;;;;;;;;;22.06;42.49;102588.56;5056828;28;20544;-71
2023/05/29 07:37:03;;;;;;;;;;;;;;;22.06;42.36;102588.56;5043809;28;19923;-70
2023/05/29 07:39:28;;;;;;;;;;;;;;;22.06;42.26;102577.75;5048848;28;19924;-71
2023/05/29 07:41:54;;;;;;;;;;;;;;;22.06;42.50;102583.16;5038201;28;19917;-71
2023/05/29 07:44:19;;;;;;;;;;;;;;;22.06;42.37;102592.13;5049949;28;19959;-71
2023/05/29 07:46:44;;;;;;;;;;;;;;;22.05;42.29;102586.88;5037957;28;20035;-71
2023/05/29 07:49:10;;;;;;;;;;;;;;;22.06;42.47;102591.28;5030409;28;19921;-71
2023/05/29 07:51:35;;;;;;;;;;;;;;;22.06;42.74;102583.16;5051704;28;19913;-71
2023/05/29 07:54:00;;;;;;;;;;;;;;;22.05;42.52;102585.03;5044515;28;19917;-71
2023/05/29 07:56:26;;;;;;;;;;;;;;;22.06;42.58;102591.28;5055084;28;19913;-70
2023/05/29 07:58:53;;;;;;;;;;;;;;;22.05;42.56;102582.31;5049192;28;20409;-70
2023/05/29 08:01:18;;;;;;;;;;;;;;;22.05;42.69;102582.31;5040862;28;19924;-71
2023/05/29 08:03:44;;;;;;;;;;;;;;;22.04;42.54;102586.00;5035554;28;19913;-71
2023/05/29 08:06:09;;;;;;;;;;;;;;;22.05;42.81;102581.47;5029311;28;19917;-71
2023/05/29 08:08:34;;;;;;;;;;;;;;;22.05;42.70;102586.88;5053100;28;19924;-71
2023/05/29 08:11:00;;;;;;;;;;;;;;;22.04;42.55;102577.88;5048371;28;19955;-71
2023/05/29 08:13:25;;;;;;;;;;;;;;;22.04;42.85;102587.84;5040312;28;20460;-71
2023/05/29 08:15:50;;;;;;;;;;;;;;;22.04;43.01;102591.41;5048167;28;19924;-71
2023/05/29 08:18:16;;;;;;;;;;;;;;;22.05;42.92;102593.16;5050985;28;20374;-71
2023/05/29 08:20:42;;;;;;;;;;;;;;;22.04;42.71;102599.53;5040552;28;19914;-71
2023/05/29 08:23:07;;;;;;;;;;;;;;;22.06;42.72;102599.41;5057744;28;19917;-71
2023/05/29 08:25:33;;;;;;;;;;;;;;;22.06;42.55;102594.00;5054499;28;20271;-71
2023/05/29 08:27:58;;;;;;;;;;;;;;;22.05;42.75;102585.03;5055377;28;20291;-71
2023/05/29 08:30:23;;;;;;;;;;;;;;;22.06;42.67;102585.88;5059210;28;19913;-71
2023/05/29 08:32:50;;;;;;;;;;;;;;;22.06;42.80;102581.31;5046516;28;19936;-71
2023/05/29 08:35:16;;;;;;;;;;;;;;;22.07;42.86;102588.41;5056129;28;19949;-71
2023/05/29 08:37:41;;;;;;;;;;;;;;;22.07;42.56;102585.72;5052158;28;19909;-71
2023/05/29 08:40:09;;;;;;;;;;;;;;;22.08;42.93;102591.97;5035557;28;20259;-71
2023/05/29 08:42:36;;;;;;;;;;;;;;;22.06;42.76;102588.56;5055139;28;19921;-70
2023/05/29 08:45:04;;;;;;;;;;;;;;;22.06;42.81;102602.13;5039098;28;19948;-71
2023/05/29 08:47:31;;;;;;;;;;;;;;;22.05;42.74;102601.28;5053092;28;19932;-71
2023/05/29 08:49:56;;;;;;;;;;;;;;;22.05;42.76;102606.69;5035266;28;20007;-70
2023/05/29 08:52:22;;;;;;;;;;;;;;;22.05;42.98;102600.41;5054026;28;19929;-70
2023/05/29 08:54:48;;;;;;;;;;;;;;;22.05;42.87;102601.28;5047293;28;19984;-71
2023/05/29 08:57:13;;;;;;;;;;;;;;;22.05;42.85;102601.28;5060399;28;19940;-71
2023/05/29 08:59:42;;;;;;;;;;;;;;;22.05;42.60;102601.28;5034346;28;20012;-71
2023/05/29 09:02:08;;;;;;;;;;;;;;;22.05;42.75;102601.28;5056941;28;19916;-71
2023/05/29 09:04:33;;;;;;;;;;;;;;;22.06;42.67;102604.84;5053605;28;19924;-70
2023/05/29 09:06:58;;;;;;;;;;;;;;;22.07;42.92;102603.81;5051866;28;19913;-70
2023/05/29 09:09:26;;;;;;;;;;;;;;;22.07;42.99;102606.53;5053487;28;19995;-71
2023/05/29 09:11:53;;;;;;;;;;;;;;;22.06;42.63;102605.69;5051964;28;19971;-71
2023/05/29 09:14:37;;;;;;;;;;;;;;;22.08;42.87;102606.38;5026697;28;20530;-70
2023/05/29 09:17:03;;;;;;;;;;;;;;;22.08;42.83;102606.38;5052489;28;19925;-71
2023/05/29 09:19:28;;;;;;;;;;;;;;;22.08;42.83;102609.06;5042485;28;19917;-71
2023/05/29 09:22:03;;;;;;;;;;;;;;;22.08;42.81;102606.38;5034004;28;19913;-71
2023/05/29 09:24:29;;;;;;;;;;;;;;;22.08;42.61;102606.38;5041642;28;20396;-71
2023/05/29 09:26:55;;;;;;;;;;;;;;;22.10;42.78;102600.81;5034217;28;19949;-71
2023/05/29 09:29:20;;;;;;;;;;;;;;;22.10;42.95;102598.97;5029986;28;20032;-71
2023/05/29 09:31:46;;;;;;;;;;;;;;;22.10;42.89;102607.09;5042887;28;19913;-71
2023/05/29 09:34:11;;;;;;;;;;;;;;;22.11;42.66;102600.66;5047037;28;19962;-71
2023/05/29 09:36:37;;;;;;;;;;;;;;;22.10;42.70;102590.84;5054499;28;19917;-71
2023/05/29 09:39:03;;;;;;;;;;;;;;;22.11;42.59;102597.94;5033710;28;19919;-71
2023/05/29 09:41:28;;;;;;;;;;;;;;;22.13;43.00;102608.66;5048956;28;19917;-71
2023/05/29 09:43:54;;;;;;;;;;;;;;;22.12;42.96;102601.50;5053556;28;19913;-71
2023/05/29 09:46:20;;;;;;;;;;;;;;;22.12;42.88;102602.41;5037156;28;19924;-71
2023/05/29 09:48:45;;;;;;;;;;;;;;;22.13;43.00;102598.72;5048078;28;20401;-71
2023/05/29 09:51:23;;;;;;;;;;;;;;;22.14;42.95;102599.56;5037216;28;19917;-71
2023/05/29 09:53:48;;;;;;;;;;;;;;;22.14;43.00;102603.13;5044290;28;19917;-71
2023/05/29 09:56:17;;;;;;;;;;;;;;;22.14;42.95;102599.56;5056808;28;20302;-69
2023/05/29 09:58:45;;;;;;;;;;;;;;;22.15;42.95;102604.81;5045944;28;19917;-70
2023/05/29 10:01:11;;;;;;;;;;;;;;;22.16;43.31;102606.50;5048532;28;19912;-71
2023/05/29 10:03:36;;;;;;;;;;;;;;;22.16;43.33;102605.66;5037360;28;19913;-70
2023/05/29 10:06:02;;;;;;;;;;;;;;;22.16;43.36;102590.25;5049251;28;19917;-70
2023/05/29 10:08:27;;;;;;;;;;;;;;;22.17;43.30;102593.81;5050035;28;20013;-70
2023/05/29 10:10:54;;;;;;;;;;;;;;;22.17;43.22;102591.09;5034201;28;19956;-71
2023/05/29 10:13:21;;;;;;;;;;;;;;;22.18;43.44;102579.28;5039506;28;19945;-70
2023/05/29 10:15:46;;;;;;;;;;;;;;;22.18;43.16;102582.84;5050762;28;19980;-71
2023/05/29 10:18:23;;;;;;;;;;;;;;;22.18;43.32;102593.69;5036038;28;19925;-71
2023/05/29 10:20:51;;;;;;;;;;;;;;;22.19;43.26;102583.69;5044592;28;19921;-70
2023/05/29 10:23:16;;;;;;;;;;;;;;;22.20;43.41;102579.97;5042712;28;19912;-70
2023/05/29 10:25:41;;;;;;;;;;;;;;;22.20;43.28;102578.13;5037837;28;19975;-70
2023/05/29 10:28:07;;;;;;;;;;;;;;;22.21;43.18;102581.69;5047529;28;20294;-71
2023/05/29 10:30:37;;;;;;;;;;;;;;;22.23;43.27;102584.25;5035528;28;19995;-71
2023/05/29 10:33:23;;;;;;;;;;;;;;;22.23;43.36;102573.41;5046007;28;19948;-71
2023/05/29 10:35:51;;;;;;;;;;;;;;;22.24;43.32;102573.25;5048806;28;20081;-71
2023/05/29 10:38:18;;;;;;;;;;;;;;;22.27;43.33;102570.25;5033168;28;19920;-71
2023/05/29 10:40:43;;;;;;;;;;;;;;;22.27;43.68;102564.84;5036556;28;19963;-70
2023/05/29 10:43:11;;;;;;;;;;;;;;;22.28;43.73;102569.25;5037784;28;19917;-71
2023/05/29 10:45:39;;;;;;;;;;;;;;;22.29;43.67;102570.94;5054087;28;19917;-71
2023/05/29 10:48:07;;;;;;;;;;;;;;;22.30;43.43;102572.69;5043008;28;19951;-70
2023/05/29 10:50:42;;;;;;;;;;;;;;;22.32;43.61;102570.66;5056045;28;19958;-71
2023/05/29 10:53:10;;;;;;;;;;;;;;;22.33;43.33;102566.09;5053098;28;19913;-71
2023/05/29 10:55:36;;;;;;;;;;;;;;;22.34;43.45;102565.06;5032461;28;19917;-71
2023/05/29 10:58:08;;;;;;;;;;;;;;;22.35;43.59;102566.78;5037170;28;19919;-71
2023/05/29 11:00:33;;;;;;;;;;;;;;;22.38;43.75;102574.59;5044094;28;19944;-71
2023/05/29 11:03:05;;;;;;;;;;;;;;;22.38;43.56;102567.31;5045413;28;19913;-71
2023/05/29 11:05:30;;;;;;;;;;;;;;;22.40;43.42;102569.91;5049917;28;19920;-70
2023/05/29 11:07:55;;;;;;;;;;;;;;;22.40;43.63;102562.63;5034684;28;19917;-71
2023/05/29 11:10:41;;;;;;;;;;;;;;;22.41;43.62;102566.19;5050471;28;19913;-71
2023/05/29 11:13:07;;;;;;;;;;;;;;;22.42;43.76;102565.16;5049964;28;19913;-71
2023/05/29 11:15:32;;;;;;;;;;;;;;;22.43;43.69;102572.31;5040854;28;19957;-71
2023/05/29 11:18:05;;;;;;;;;;;;;;;22.43;43.91;102567.75;5036912;28;19932;-70
2023/05/29 11:20:36;;;;;;;;;;;;;;;22.44;43.65;102574.00;5052494;28;19917;-71
2023/05/29 11:23:08;;;;;;;;;;;;;;;22.45;43.65;102575.72;5052450;28;19913;-71
2023/05/29 11:25:37;;;;;;;;;;;;;;;22.46;43.75;102577.41;5023721;28;19920;-71
2023/05/29 11:28:04;;;;;;;;;;;;;;;22.48;43.67;102577.28;5041295;28;19921;-70
2023/05/29 11:30:30;;;;;;;;;;;;;;;22.48;43.57;102571.84;5035827;28;20332;-71
2023/05/29 11:32:56;;;;;;;;;;;;;;;22.49;43.75;102570.84;5031590;28;20314;-71
2023/05/29 11:35:22;;;;;;;;;;;;;;;22.51;43.76;102579.66;5043196;28;19913;-71
2023/05/29 11:37:47;;;;;;;;;;;;;;;22.51;43.95;102564.25;5049546;28;19958;-71
2023/05/29 11:40:13;;;;;;;;;;;;;;;22.52;43.59;102568.69;5034541;28;19917;-71
2023/05/29 11:42:44;;;;;;;;;;;;;;;22.54;43.69;102565.81;5035119;28;19928;-71
2023/05/29 11:45:21;;;;;;;;;;;;;;;22.54;43.74;102563.09;5038622;28;19924;-71
2023/05/29 11:47:53;;;;;;;;;;;;;;;22.55;43.90;102576.50;5036859;28;19916;-70
2023/05/29 11:50:22;;;;;;;;;;;;;;;22.55;43.78;102567.50;5050153;28;19924;-70
2023/05/29 11:52:47;;;;;;;;;;;;;;;22.56;43.66;102569.25;5056505;28;19931;-70
2023/05/29 11:55:12;;;;;;;;;;;;;;;22.58;43.99;102569.94;5045036;28;19917;-71
2023/05/29 11:57:37;;;;;;;;;;;;;;;22.58;43.93;102575.34;5033836;28;19913;-71
2023/05/29 12:00:09;;;;;;;;;;;;;;;22.59;43.91;102568.91;5053681;28;19905;-71
2023/05/29 12:02:37;;;;;;;;;;;;;;;22.61;43.93;102556.91;5059553;28;19925;-71
2023/05/29 12:05:04;;;;;;;;;;;;;;;22.61;43.89;102556.91;5053704;28;19927;-70
2023/05/29 12:07:29;;;;;;;;;;;;;;;22.63;44.05;102568.44;5057036;28;19913;-70
2023/05/29 12:09:57;;;;;;;;;;;;;;;22.64;43.88;102567.47;5053477;28;19948;-71
2023/05/29 12:12:23;;;;;;;;;;;;;;;22.65;43.95;102568.31;5056536;28;20393;-71
2023/05/29 12:14:50;;;;;;;;;;;;;;;22.66;43.93;102564.59;5056652;28;19929;-71
2023/05/29 12:17:15;;;;;;;;;;;;;;;22.68;43.93;102568.00;5033175;28;19975;-71
2023/05/29 12:19:40;;;;;;;;;;;;;;;22.68;44.04;102558.03;5040907;28;19913;-71
2023/05/29 12:22:05;;;;;;;;;;;;;;;22.69;43.91;102559.72;5052845;28;20797;-71
2023/05/29 12:24:31;;;;;;;;;;;;;;;22.70;44.03;102556.00;5055629;28;19976;-71
2023/05/29 12:26:56;;;;;;;;;;;;;;;22.71;43.72;102563.13;5039821;28;20247;-71
2023/05/29 12:29:29;;;;;;;;;;;;;;;22.73;44.07;102554.84;5035709;28;19921;-70
2023/05/29 12:31:58;;;;;;;;;;;;;;;22.74;44.07;102552.97;5053080;28;19914;-71